Time;durP1;ratioP1;P1;durP2;ratioP2;P2;SDS_P1;SDS_P2;PMS_P1;PMS_P2;Temp;Humidity;BMP_temperature;BMP_pressure;BME280_temperature;BME280_humidity;BME280_pressure;Samples;Min_cycle;Max_cycle;Signal;HPM_P1;HPM_P2
2022/06/11 00:01:41;;;;;;;14.20;2.80;;;12.10;79.10;;;;;;4954285;29;20047;-79
2022/06/11 00:04:12;;;;;;;21.08;2.90;;;12.10;79.50;;;;;;4953851;29;20678;-78
2022/06/11 00:06:45;;;;;;;25.98;3.17;;;12.10;79.60;;;;;;4951877;29;20042;-79
2022/06/11 00:09:14;;;;;;;20.40;3.20;;;12.00;80.00;;;;;;4947362;28;20067;-79
2022/06/11 00:11:42;;;;;;;19.50;3.08;;;12.00;80.30;;;;;;4944443;29;20035;-79
2022/06/11 00:14:10;;;;;;;24.65;3.60;;;12.00;80.30;;;;;;4954092;29;20055;-79
2022/06/11 00:16:39;;;;;;;24.00;3.00;;;11.90;80.50;;;;;;4953900;29;20047;-79
2022/06/11 00:19:07;;;;;;;24.27;3.08;;;11.90;80.40;;;;;;4952755;29;20047;-79
2022/06/11 00:21:37;;;;;;;18.17;2.67;;;11.80;80.60;;;;;;4953440;29;20054;-79
2022/06/11 00:24:06;;;;;;;26.00;3.53;;;11.80;80.70;;;;;;4954539;28;20050;-79
2022/06/11 00:26:35;;;;;;;16.15;2.70;;;11.80;80.60;;;;;;4957446;29;20047;-79
2022/06/11 00:29:04;;;;;;;22.25;3.13;;;11.80;80.70;;;;;;4956694;29;20047;-79
2022/06/11 00:31:32;;;;;;;16.42;2.58;;;11.70;80.90;;;;;;4955956;29;20047;-78
2022/06/11 00:34:00;;;;;;;21.85;3.13;;;11.60;81.10;;;;;;4957225;29;20051;-79
2022/06/11 00:36:28;;;;;;;18.35;3.15;;;11.60;81.30;;;;;;4957010;29;20051;-79
2022/06/11 00:38:56;;;;;;;21.48;2.95;;;11.60;81.50;;;;;;4956427;29;20047;-79
2022/06/11 00:41:26;;;;;;;28.38;3.15;;;11.60;81.80;;;;;;4956886;29;20497;-79
2022/06/11 00:43:54;;;;;;;21.85;3.38;;;11.60;81.90;;;;;;4957009;29;20500;-79
2022/06/11 00:46:46;;;;;;;26.52;3.35;;;11.60;82.00;;;;;;4956287;29;20051;-79
2022/06/11 00:49:44;;;;;;;17.35;2.80;;;11.60;82.30;;;;;;4951522;29;20405;-79
2022/06/11 00:52:24;;;;;;;23.63;3.38;;;11.60;82.00;;;;;;4938114;29;20047;-78
2022/06/11 00:55:14;;;;;;;22.73;3.33;;;11.60;82.20;;;;;;4938174;29;20056;-79
2022/06/11 00:58:09;;;;;;;21.17;3.13;;;11.50;82.20;;;;;;4924210;29;20059;-78
2022/06/11 01:00:41;;;;;;;26.95;3.53;;;11.50;82.40;;;;;;4956502;29;20040;-79
2022/06/11 01:03:11;;;;;;;23.70;3.03;;;11.50;82.50;;;;;;4954822;29;20055;-79
2022/06/11 01:05:45;;;;;;;26.08;3.33;;;11.40;82.70;;;;;;4956273;29;20043;-79
2022/06/11 01:08:33;;;;;;;17.33;2.45;;;11.40;82.90;;;;;;4955624;29;20437;-80
2022/06/11 01:11:32;;;;;;;24.75;3.08;;;11.40;83.00;;;;;;4956256;29;20507;-79
2022/06/11 01:14:27;;;;;;;22.60;3.15;;;11.40;83.10;;;;;;4947225;29;20484;-79
2022/06/11 01:17:20;;;;;;;20.95;2.72;;;11.30;83.10;;;;;;4957145;29;20066;-79
2022/06/11 01:20:22;;;;;;;18.65;2.90;;;11.40;83.20;;;;;;4955767;29;20051;-79
2022/06/11 01:22:58;;;;;;;29.35;3.10;;;11.30;83.00;;;;;;4897089;29;20045;-79
2022/06/11 01:25:32;;;;;;;25.67;3.42;;;11.30;83.00;;;;;;4897514;29;20096;-79
2022/06/11 01:28:12;;;;;;;23.27;3.28;;;11.30;83.00;;;;;;4896640;29;20168;-79
2022/06/11 01:30:50;;;;;;;26.33;3.47;;;11.30;83.00;;;;;;4881641;29;20056;-78
2022/06/11 01:33:35;;;;;;;18.52;2.63;;;11.30;83.10;;;;;;4896665;29;20534;-79
2022/06/11 01:36:11;;;;;;;28.10;3.17;;;11.30;83.20;;;;;;4895400;29;20648;-79
2022/06/11 01:38:51;;;;;;;26.40;3.60;;;11.20;83.30;;;;;;4896614;29;20071;-79
2022/06/11 01:41:28;;;;;;;22.88;3.13;;;11.20;83.60;;;;;;4897426;29;20060;-79
2022/06/11 01:44:01;;;;;;;17.92;3.22;;;11.10;83.60;;;;;;4897128;29;20184;-79
2022/06/11 01:46:36;;;;;;;27.73;3.20;;;11.10;83.60;;;;;;4896817;29;20052;-79
2022/06/11 01:49:20;;;;;;;18.27;2.65;;;11.10;83.70;;;;;;4866676;29;20044;-79
2022/06/11 01:52:34;;;;;;;27.05;3.53;;;11.10;83.80;;;;;;4896666;29;20442;-79
2022/06/11 01:55:47;;;;;;;22.35;2.92;;;11.10;84.00;;;;;;4801623;29;20087;-78
2022/06/11 01:58:25;;;;;;;19.58;3.22;;;11.10;84.20;;;;;;4776293;29;20070;-79
2022/06/11 02:01:14;;;;;;;24.83;3.28;;;11.10;84.30;;;;;;4821365;29;20473;-79
2022/06/11 02:03:52;;;;;;;23.13;3.40;;;11.10;84.30;;;;;;4807526;29;20054;-79
2022/06/11 02:06:57;;;;;;;24.17;3.10;;;11.10;84.40;;;;;;4822280;29;20058;-79
2022/06/11 02:09:43;;;;;;;25.27;3.95;;;11.00;84.30;;;;;;4807318;29;20065;-79
2022/06/11 02:12:41;;;;;;;28.20;3.45;;;11.00;84.40;;;;;;4822263;29;20378;-79
2022/06/11 02:15:32;;;;;;;27.13;3.08;;;10.90;84.30;;;;;;4816560;29;20529;-79
2022/06/11 02:18:08;;;;;;;31.65;3.90;;;10.80;84.50;;;;;;4804982;29;20054;-79
2022/06/11 02:20:41;;;;;;;19.95;3.55;;;10.80;84.50;;;;;;4810625;29;20062;-79
2022/06/11 02:23:16;;;;;;;23.75;3.13;;;10.80;84.60;;;;;;4809271;29;20604;-79
2022/06/11 02:25:50;;;;;;;21.38;2.90;;;10.80;84.60;;;;;;4819175;29;20417;-78
2022/06/11 02:28:22;;;;;;;31.90;3.08;;;10.80;84.70;;;;;;4805013;29;20066;-78
2022/06/11 02:30:52;;;;;;;27.05;3.15;;;10.90;84.80;;;;;;4841002;29;20076;-78
2022/06/11 02:33:21;;;;;;;20.85;3.00;;;10.90;84.70;;;;;;4938061;29;20051;-78
2022/06/11 02:36:10;;;;;;;19.70;2.50;;;11.00;84.70;;;;;;4945708;29;20051;-78
2022/06/11 02:38:38;;;;;;;20.88;3.20;;;11.00;84.90;;;;;;4954104;29;20051;-78
2022/06/11 02:41:13;;;;;;;29.30;3.25;;;11.20;85.10;;;;;;4953715;29;20070;-78
2022/06/11 02:43:41;;;;;;;27.10;3.22;;;11.30;85.00;;;;;;4953741;29;20055;-78
2022/06/11 02:48:58;;;;;;;20.08;2.72;;;11.40;84.90;;;;;;4946688;29;20051;-78
2022/06/11 02:51:28;;;;;;;26.10;2.72;;;11.60;84.90;;;;;;4954336;29;20066;-78
2022/06/11 02:53:56;;;;;;;23.35;2.72;;;11.60;84.90;;;;;;4950828;29;20058;-78
2022/06/11 02:56:24;;;;;;;26.65;3.00;;;11.70;84.80;;;;;;4945809;29;20486;-77
2022/06/11 02:58:51;;;;;;;30.48;3.30;;;11.70;84.70;;;;;;4935611;29;20062;-77
2022/06/11 03:01:20;;;;;;;23.98;3.40;;;11.60;84.80;;;;;;4952008;29;20055;-77
2022/06/11 03:03:49;;;;;;;19.55;3.22;;;11.60;85.00;;;;;;4954137;29;20047;-77
2022/06/11 03:06:21;;;;;;;18.25;2.92;;;11.50;85.00;;;;;;4938222;29;20504;-78
2022/06/11 03:08:49;;;;;;;24.48;3.50;;;11.40;85.00;;;;;;4936214;29;20066;-78
2022/06/11 03:11:17;;;;;;;23.33;3.03;;;11.30;85.20;;;;;;4944812;29;20055;-78
2022/06/11 03:13:44;;;;;;;22.17;3.67;;;11.30;85.30;;;;;;4954464;29;20058;-78
2022/06/11 03:16:13;;;;;;;19.75;3.20;;;11.20;85.50;;;;;;4954617;29;20047;-78
2022/06/11 03:18:41;;;;;;;28.60;3.80;;;11.10;85.60;;;;;;4953661;29;20043;-78
2022/06/11 03:21:09;;;;;;;17.48;2.55;;;11.10;85.70;;;;;;4954383;29;20050;-78
2022/06/11 03:23:38;;;;;;;24.92;2.83;;;11.00;85.80;;;;;;4954892;29;20500;-78
2022/06/11 03:26:06;;;;;;;24.55;3.15;;;11.00;86.00;;;;;;4953555;29;20066;-78
2022/06/11 03:28:35;;;;;;;26.40;3.60;;;10.90;86.10;;;;;;4953387;29;20043;-79
2022/06/11 03:31:06;;;;;;;24.35;3.30;;;10.90;86.30;;;;;;4953287;29;20039;-78
2022/06/11 03:33:36;;;;;;;24.48;3.30;;;10.90;86.30;;;;;;4953962;29;20527;-78
2022/06/11 03:36:06;;;;;;;24.55;3.50;;;10.80;86.30;;;;;;4954640;29;20051;-79
2022/06/11 03:38:34;;;;;;;24.75;3.28;;;10.80;86.30;;;;;;4954574;29;20054;-78
2022/06/11 03:41:01;;;;;;;24.10;3.28;;;10.80;86.40;;;;;;4953924;29;20055;-79
2022/06/11 03:43:29;;;;;;;25.17;3.08;;;10.80;86.50;;;;;;4953233;29;20070;-78
2022/06/11 03:45:58;;;;;;;21.95;3.25;;;10.80;86.60;;;;;;4954546;29;20062;-78
2022/06/11 03:48:30;;;;;;;19.75;3.20;;;10.70;86.60;;;;;;4952989;29;20408;-78
2022/06/11 03:51:00;;;;;;;28.92;3.20;;;10.70;86.70;;;;;;4954381;29;20501;-78
2022/06/11 03:53:29;;;;;;;36.90;4.45;;;10.70;86.70;;;;;;4953481;29;20039;-78
2022/06/11 03:55:57;;;;;;;22.15;2.88;;;10.70;86.90;;;;;;4954157;29;20051;-78
2022/06/11 03:58:26;;;;;;;18.77;3.28;;;10.60;86.90;;;;;;4952217;28;20420;-79
2022/06/11 04:03:52;;;;;;;24.50;3.28;;;10.60;86.90;;;;;;4954018;29;20051;-78
2022/06/11 04:06:25;;;;;;;22.90;3.92;;;10.60;86.90;;;;;;4954074;29;20044;-78
2022/06/11 04:08:52;;;;;;;29.13;3.60;;;10.50;87.00;;;;;;4952417;29;20497;-78
2022/06/11 04:11:21;;;;;;;21.88;3.22;;;10.50;86.90;;;;;;4937137;29;20423;-78
2022/06/11 04:13:50;;;;;;;22.38;2.67;;;10.40;87.00;;;;;;4957142;29;20051;-79
2022/06/11 04:16:31;;;;;;;20.02;3.05;;;10.40;87.10;;;;;;4956350;29;20047;-79
2022/06/11 04:19:02;;;;;;;19.75;3.40;;;10.40;87.10;;;;;;4954408;29;20046;-79
2022/06/11 04:21:31;;;;;;;23.85;3.25;;;10.40;87.00;;;;;;4953511;28;20059;-79
2022/06/11 04:24:00;;;;;;;26.20;3.28;;;10.40;87.10;;;;;;4953865;29;20039;-80
2022/06/11 04:26:33;;;;;;;21.85;3.17;;;10.40;87.10;;;;;;4954067;29;20482;-79
2022/06/11 04:29:02;;;;;;;21.15;3.88;;;10.40;87.00;;;;;;4953968;29;20401;-79
2022/06/11 04:31:31;;;;;;;19.98;2.92;;;10.40;87.00;;;;;;4953768;29;20055;-79
2022/06/11 04:34:00;;;;;;;21.15;3.22;;;10.40;87.00;;;;;;4954029;29;20401;-80
2022/06/11 04:36:30;;;;;;;31.75;3.10;;;10.30;87.00;;;;;;4953674;29;20050;-80
2022/06/11 04:38:58;;;;;;;30.60;3.92;;;10.30;87.00;;;;;;4952413;29;20039;-79
2022/06/11 04:41:26;;;;;;;27.67;3.28;;;10.40;87.00;;;;;;4953417;29;20423;-79
2022/06/11 04:43:54;;;;;;;22.98;3.33;;;10.30;86.90;;;;;;4953906;29;20043;-79
2022/06/11 04:46:22;;;;;;;24.08;3.60;;;10.50;86.90;;;;;;4952628;29;20047;-79
2022/06/11 04:48:50;;;;;;;19.13;3.13;;;10.50;87.00;;;;;;4953799;29;20101;-79
2022/06/11 04:51:19;;;;;;;23.63;3.33;;;10.60;87.20;;;;;;4953808;29;20043;-80
2022/06/11 04:53:48;;;;;;;16.20;3.38;;;10.70;87.10;;;;;;4953522;29;20047;-79
2022/06/11 04:56:20;;;;;;;22.95;3.10;;;10.80;86.90;;;;;;4953429;29;20047;-79
2022/06/11 04:58:49;;;;;;;24.10;2.45;;;10.80;86.80;;;;;;4953806;29;20047;-79
2022/06/11 05:01:17;;;;;;;23.33;2.55;;;11.00;86.70;;;;;;4952986;28;20523;-79
2022/06/11 05:03:45;;;;;;;19.83;2.67;;;11.00;86.50;;;;;;4953582;28;20503;-79
2022/06/11 05:06:20;;;;;;;23.00;3.53;;;11.20;86.40;;;;;;4953433;29;20448;-79
2022/06/11 05:08:48;;;;;;;18.35;2.50;;;11.30;86.20;;;;;;4952403;28;20046;-79
2022/06/11 05:11:16;;;;;;;23.52;2.70;;;11.30;85.90;;;;;;4957075;29;20058;-79
2022/06/11 05:13:43;;;;;;;17.90;2.70;;;11.30;85.70;;;;;;4955402;29;20039;-79
2022/06/11 05:16:14;;;;;;;21.60;3.47;;;11.40;85.50;;;;;;4956808;29;20051;-79
2022/06/11 05:18:42;;;;;;;24.00;3.03;;;11.50;85.40;;;;;;4957121;29;20043;-79
2022/06/11 05:21:10;;;;;;;17.92;2.45;;;11.50;85.20;;;;;;4956531;29;20051;-79
2022/06/11 05:23:38;;;;;;;24.75;2.90;;;11.60;85.00;;;;;;4956987;29;20047;-79
2022/06/11 05:26:20;;;;;;;17.55;2.30;;;11.70;84.70;;;;;;4956146;28;20051;-79
2022/06/11 05:28:48;;;;;;;20.17;3.20;;;11.80;84.50;;;;;;4956899;29;20465;-79
2022/06/11 05:31:16;;;;;;;17.67;2.28;;;11.80;84.20;;;;;;4956541;29;20071;-79
2022/06/11 05:33:45;;;;;;;17.42;2.50;;;12.00;84.00;;;;;;4955158;29;20047;-79
2022/06/11 05:36:14;;;;;;;18.55;2.40;;;12.00;83.70;;;;;;4956680;29;20412;-78
2022/06/11 05:38:42;;;;;;;18.33;2.92;;;12.10;83.50;;;;;;4955405;29;20039;-78
2022/06/11 05:41:10;;;;;;;15.60;2.45;;;12.20;83.20;;;;;;4956354;29;20063;-78
2022/06/11 05:43:37;;;;;;;20.77;3.17;;;12.30;82.90;;;;;;4956583;29;20043;-78
2022/06/11 05:46:14;;;;;;;19.73;2.70;;;12.30;82.40;;;;;;4954967;29;20417;-78
2022/06/11 05:48:49;;;;;;;17.42;3.00;;;12.50;82.10;;;;;;4956681;29;20524;-79
2022/06/11 05:51:20;;;;;;;19.17;2.42;;;12.50;81.80;;;;;;4956403;29;20054;-78
2022/06/11 05:53:51;;;;;;;17.85;2.55;;;12.70;81.50;;;;;;4955158;29;20043;-78
2022/06/11 05:56:19;;;;;;;12.43;2.15;;;12.80;80.90;;;;;;4956228;29;20047;-79
2022/06/11 05:58:52;;;;;;;20.00;2.67;;;12.80;80.70;;;;;;4956135;29;20062;-78
2022/06/11 06:01:31;;;;;;;20.77;2.97;;;13.00;80.30;;;;;;4955983;29;20054;-78
2022/06/11 06:03:59;;;;;;;13.77;2.67;;;13.00;80.10;;;;;;4955022;29;20069;-78
2022/06/11 06:06:27;;;;;;;16.38;2.45;;;13.10;80.00;;;;;;4956376;29;20054;-77
2022/06/11 06:08:54;;;;;;;14.43;2.38;;;13.20;79.80;;;;;;4955659;28;20051;-78
2022/06/11 06:11:22;;;;;;;12.77;3.08;;;13.30;79.60;;;;;;4956050;29;20055;-78
2022/06/11 06:13:50;;;;;;;14.40;2.50;;;13.30;79.40;;;;;;4956115;29;20404;-78
2022/06/11 06:16:20;;;;;;;20.52;2.67;;;13.40;78.90;;;;;;4957997;29;20055;-79
2022/06/11 06:18:49;;;;;;;13.25;2.58;;;13.50;78.70;;;;;;4956971;29;20074;-78
2022/06/11 06:21:20;;;;;;;18.13;3.35;;;13.60;78.30;;;;;;4953531;28;20074;-78
2022/06/11 06:23:48;;;;;;;13.45;2.25;;;13.60;78.10;;;;;;4955697;29;20051;-79
2022/06/11 06:26:16;;;;;;;15.60;3.17;;;13.80;78.00;;;;;;4955839;29;20153;-78
2022/06/11 06:28:44;;;;;;;17.90;3.03;;;13.80;77.70;;;;;;4955597;29;20385;-78
2022/06/11 06:31:14;;;;;;;19.33;2.50;;;13.90;77.60;;;;;;4955693;29;20047;-79
2022/06/11 06:33:43;;;;;;;16.17;2.78;;;13.90;77.30;;;;;;4955034;29;20051;-79
2022/06/11 06:36:11;;;;;;;19.02;3.15;;;14.00;76.60;;;;;;4955562;29;20405;-78
2022/06/11 06:38:40;;;;;;;20.15;2.85;;;14.10;76.40;;;;;;4954376;29;20039;-79
2022/06/11 06:41:08;;;;;;;15.63;2.42;;;14.20;76.40;;;;;;4955169;29;20050;-78
2022/06/11 06:43:36;;;;;;;14.73;2.80;;;14.30;76.10;;;;;;4955298;29;20397;-78
2022/06/11 06:46:04;;;;;;;11.68;2.45;;;14.30;75.30;;;;;;4955391;29;20055;-78
2022/06/11 06:48:32;;;;;;;16.88;2.75;;;14.40;75.00;;;;;;4953876;29;20512;-78
2022/06/11 06:51:00;;;;;;;11.95;2.17;;;14.70;75.00;;;;;;4955298;29;20408;-77
2022/06/11 06:53:28;;;;;;;11.15;2.60;;;14.80;72.90;;;;;;4955418;29;20066;-78
2022/06/11 06:55:56;;;;;;;17.50;2.75;;;14.80;72.70;;;;;;4955157;29;20050;-78
2022/06/11 06:58:24;;;;;;;12.90;2.15;;;14.90;71.70;;;;;;4955132;29;20054;-79
2022/06/11 07:00:52;;;;;;;10.48;2.08;;;15.00;71.60;;;;;;4937443;29;20055;-78
2022/06/11 07:03:20;;;;;;;12.88;2.53;;;15.20;71.40;;;;;;4955032;29;20058;-78
2022/06/11 07:05:48;;;;;;;13.55;2.83;;;15.40;70.70;;;;;;4955319;29;20047;-78
2022/06/11 07:08:17;;;;;;;22.23;3.03;;;15.60;70.10;;;;;;4954649;29;20051;-78
2022/06/11 07:10:50;;;;;;;14.00;2.70;;;15.70;69.80;;;;;;4951219;29;20048;-79
2022/06/11 07:13:20;;;;;;;13.60;2.58;;;15.70;70.10;;;;;;4935918;29;20052;-79
2022/06/11 07:15:50;;;;;;;16.13;2.80;;;15.80;70.50;;;;;;4951872;29;20536;-79
2022/06/11 07:18:28;;;;;;;13.00;2.47;;;16.00;69.70;;;;;;4934260;29;20058;-79
2022/06/11 07:20:59;;;;;;;10.73;2.17;;;15.90;69.30;;;;;;4943487;29;20043;-80
2022/06/11 07:23:42;;;;;;;13.70;2.38;;;16.00;68.70;;;;;;4954711;28;20465;-79
2022/06/11 07:26:17;;;;;;;14.60;2.40;;;15.80;68.10;;;;;;4954478;29;20047;-78
2022/06/11 07:29:15;;;;;;;14.52;2.83;;;15.50;69.10;;;;;;4954843;29;20058;-78
2022/06/11 07:31:47;;;;;;;9.93;2.25;;;15.40;70.30;;;;;;4953472;28;20051;-78
2022/06/11 07:34:16;;;;;;;15.05;2.58;;;15.30;70.50;;;;;;4953815;28;20059;-79
2022/06/11 07:36:44;;;;;;;16.25;3.05;;;15.30;70.30;;;;;;4952429;29;20062;-78
2022/06/11 07:39:12;;;;;;;14.73;3.03;;;15.30;69.90;;;;;;4953285;29;21383;-78
2022/06/11 07:41:39;;;;;;;14.63;2.35;;;15.30;70.20;;;;;;4953122;29;20424;-78
2022/06/11 07:44:11;;;;;;;10.13;1.70;;;15.30;70.40;;;;;;4951381;29;20069;-79
2022/06/11 07:46:39;;;;;;;19.23;2.92;;;15.40;70.20;;;;;;4954355;29;20055;-78
2022/06/11 07:49:07;;;;;;;20.42;2.42;;;15.50;69.70;;;;;;4952493;29;20054;-80
2022/06/11 07:51:34;;;;;;;13.68;2.85;;;15.60;69.90;;;;;;4954052;29;20043;-78
2022/06/11 07:54:02;;;;;;;13.02;2.60;;;15.80;68.60;;;;;;4954155;29;20409;-79
2022/06/11 07:56:30;;;;;;;14.63;2.50;;;15.80;68.20;;;;;;4954108;29;20051;-78
2022/06/11 07:58:58;;;;;;;24.40;2.58;;;16.00;67.90;;;;;;4954179;29;20043;-79
2022/06/11 08:01:25;;;;;;;9.50;1.67;;;16.20;66.40;;;;;;4954152;29;20047;-79
2022/06/11 08:03:53;;;;;;;10.23;2.40;;;16.30;65.90;;;;;;4952867;29;20070;-79
2022/06/11 08:06:21;;;;;;;15.60;2.63;;;16.30;65.30;;;;;;4953794;29;20405;-79
2022/06/11 08:08:50;;;;;;;12.38;2.58;;;16.30;65.60;;;;;;4953163;28;20051;-79
2022/06/11 08:11:17;;;;;;;12.98;2.58;;;16.30;64.80;;;;;;4947370;29;20052;-78
2022/06/11 08:13:47;;;;;;;14.43;2.90;;;16.30;65.50;;;;;;4954312;29;20055;-79
2022/06/11 08:16:15;;;;;;;10.55;2.22;;;16.50;65.70;;;;;;4952799;29;20501;-78
2022/06/11 08:18:44;;;;;;;10.55;2.10;;;16.60;64.30;;;;;;4956443;29;20417;-78
2022/06/11 08:21:11;;;;;;;6.28;1.70;;;16.70;62.50;;;;;;4954104;29;20052;-79
2022/06/11 08:23:40;;;;;;;14.60;2.22;;;16.80;62.40;;;;;;4946979;29;20040;-79
2022/06/11 08:26:08;;;;;;;10.40;2.30;;;16.70;61.30;;;;;;4945763;29;20042;-80
2022/06/11 08:28:35;;;;;;;10.70;1.77;;;16.70;61.40;;;;;;4953761;29;20532;-79
2022/06/11 08:31:04;;;;;;;12.68;2.72;;;16.70;60.00;;;;;;4953262;29;20040;-79
2022/06/11 08:33:33;;;;;;;14.75;2.70;;;16.70;60.10;;;;;;4953405;29;20054;-79
2022/06/11 08:36:01;;;;;;;9.93;2.08;;;16.70;60.80;;;;;;4953767;29;20043;-80
2022/06/11 08:38:28;;;;;;;10.23;1.63;;;16.80;59.70;;;;;;4953725;29;20070;-80
2022/06/11 08:40:56;;;;;;;15.18;2.28;;;16.90;59.20;;;;;;4953610;28;20059;-80
2022/06/11 08:43:29;;;;;;;12.48;2.20;;;17.00;59.00;;;;;;4953037;28;20404;-79
2022/06/11 08:46:16;;;;;;;10.82;2.13;;;17.20;58.20;;;;;;4956733;29;20066;-79
2022/06/11 08:49:11;;;;;;;16.77;2.53;;;17.20;58.30;;;;;;4957401;29;20400;-78
2022/06/11 08:51:55;;;;;;;11.60;2.35;;;17.20;59.30;;;;;;4955838;29;20354;-79
2022/06/11 08:54:27;;;;;;;11.23;2.17;;;17.30;59.70;;;;;;4938259;29;20059;-79
2022/06/11 08:57:30;;;;;;;10.15;1.80;;;17.40;59.00;;;;;;4938296;29;20071;-79
2022/06/11 09:00:12;;;;;;;11.23;2.65;;;17.60;57.70;;;;;;4898103;29;20494;-77
2022/06/11 09:02:45;;;;;;;8.25;1.98;;;17.60;57.90;;;;;;4882335;29;20507;-78
2022/06/11 09:05:27;;;;;;;8.45;1.40;;;17.70;57.30;;;;;;4898051;29;20060;-78
2022/06/11 09:08:12;;;;;;;9.52;1.95;;;17.80;56.20;;;;;;4900618;29;20075;-78
2022/06/11 09:10:57;;;;;;;13.35;1.88;;;17.70;56.10;;;;;;4916577;29;20052;-77
2022/06/11 09:13:36;;;;;;;9.57;2.13;;;17.70;57.00;;;;;;4916839;29;20059;-77
2022/06/11 09:16:34;;;;;;;11.02;2.28;;;17.80;57.30;;;;;;4914881;29;20048;-77
2022/06/11 09:19:20;;;;;;;10.15;2.75;;;18.00;56.80;;;;;;4915524;29;20051;-77
2022/06/11 09:21:56;;;;;;;11.38;2.83;;;18.10;57.00;;;;;;4898161;29;20052;-77
2022/06/11 09:25:04;;;;;;;8.13;2.42;;;18.30;57.70;;;;;;4893486;29;20052;-77
2022/06/11 09:27:39;;;;;;;9.10;2.30;;;18.50;56.60;;;;;;4916753;29;20387;-80
2022/06/11 09:30:11;;;;;;;14.13;3.13;;;18.40;56.10;;;;;;4905008;29;20048;-79
2022/06/11 09:32:57;;;;;;;26.43;3.03;;;18.30;56.80;;;;;;4915515;29;20355;-80
2022/06/11 09:35:43;;;;;;;8.90;2.65;;;18.20;57.00;;;;;;4900520;29;20059;-79
2022/06/11 09:38:46;;;;;;;22.02;2.75;;;18.30;55.20;;;;;;4947212;29;20036;-79
2022/06/11 09:41:32;;;;;;;14.15;2.17;;;18.40;55.90;;;;;;4954722;29;20054;-81
2022/06/11 09:44:19;;;;;;;12.30;2.10;;;18.70;55.70;;;;;;4956322;29;20055;-80
2022/06/11 09:46:58;;;;;;;8.75;1.73;;;18.90;54.60;;;;;;4956266;29;20049;-79
2022/06/11 09:49:43;;;;;;;8.77;1.98;;;19.00;52.20;;;;;;4956704;28;20493;-80
2022/06/11 09:52:14;;;;;;;12.68;2.40;;;18.80;52.40;;;;;;4938114;29;20078;-79
2022/06/11 09:54:59;;;;;;;10.27;2.25;;;18.80;53.30;;;;;;4956205;29;20046;-80
2022/06/11 09:58:01;;;;;;;11.63;2.67;;;18.80;53.50;;;;;;4956184;29;20060;-79
2022/06/11 10:00:56;;;;;;;6.93;1.55;;;19.00;53.70;;;;;;4956182;29;20047;-79
2022/06/11 10:03:59;;;;;;;12.63;2.20;;;18.90;51.90;;;;;;4956380;29;20054;-79
2022/06/11 10:06:47;;;;;;;17.13;2.60;;;18.60;52.50;;;;;;4955637;28;20051;-78
2022/06/11 10:09:25;;;;;;;5.13;1.73;;;18.40;54.20;;;;;;4956241;29;20050;-79
2022/06/11 10:12:16;;;;;;;17.02;1.55;;;18.30;53.50;;;;;;4956190;29;20054;-79
2022/06/11 10:15:08;;;;;;;32.08;2.72;;;18.20;54.20;;;;;;4955775;29;20131;-79
2022/06/11 10:18:04;;;;;;;3.58;1.50;;;18.20;54.40;;;;;;4956200;29;20047;-78
2022/06/11 10:20:41;;;;;;;6.35;1.60;;;18.10;53.90;;;;;;4940878;29;20051;-78
2022/06/11 10:23:26;;;;;;;6.45;1.67;;;18.20;54.60;;;;;;4954959;28;20051;-78
2022/06/11 10:25:57;;;;;;;21.15;2.70;;;18.50;53.60;;;;;;4955612;28;20066;-78
2022/06/11 10:28:39;;;;;;;6.70;1.75;;;18.50;54.10;;;;;;4955931;29;20054;-78
2022/06/11 10:31:16;;;;;;;13.70;2.35;;;18.60;53.40;;;;;;4955696;29;20128;-78
2022/06/11 10:34:01;;;;;;;10.75;1.80;;;18.60;53.60;;;;;;4955495;29;20070;-78
2022/06/11 10:37:01;;;;;;;7.85;2.20;;;18.80;54.10;;;;;;4955649;29;20063;-78
2022/06/11 10:39:36;;;;;;;10.43;2.45;;;19.00;53.50;;;;;;4951586;29;20397;-79
2022/06/11 10:42:19;;;;;;;6.18;1.98;;;18.90;53.20;;;;;;4954364;29;20054;-79
2022/06/11 10:44:53;;;;;;;17.08;2.33;;;18.90;53.40;;;;;;4955479;29;20054;-79
2022/06/11 10:47:32;;;;;;;7.28;1.10;;;18.90;52.60;;;;;;4955556;29;20043;-79
2022/06/11 10:50:07;;;;;;;8.18;1.75;;;19.00;52.80;;;;;;4953557;29;20047;-79
2022/06/11 10:52:55;;;;;;;11.93;2.22;;;19.00;52.90;;;;;;4947384;29;20035;-79
2022/06/11 10:55:36;;;;;;;9.45;1.80;;;19.10;52.80;;;;;;4952709;29;20055;-79
2022/06/11 10:58:16;;;;;;;3.78;1.02;;;19.20;52.20;;;;;;4942638;28;20425;-78
2022/06/11 11:00:47;;;;;;;5.88;1.05;;;19.30;50.30;;;;;;4934696;29;20043;-78
2022/06/11 11:03:24;;;;;;;6.40;1.48;;;19.30;51.40;;;;;;4946752;29;20382;-78
2022/06/11 11:06:05;;;;;;;7.05;1.35;;;19.20;51.00;;;;;;4954700;29;20043;-79
2022/06/11 11:08:36;;;;;;;8.00;1.63;;;19.30;51.40;;;;;;4945446;29;20051;-78
2022/06/11 11:11:10;;;;;;;4.50;0.77;;;19.30;50.50;;;;;;4953499;29;20055;-78
2022/06/11 11:13:41;;;;;;;7.47;1.70;;;19.40;49.80;;;;;;4954974;29;20069;-78
2022/06/11 11:16:25;;;;;;;7.03;1.48;;;19.60;49.10;;;;;;4954888;29;20055;-78
2022/06/11 11:19:12;;;;;;;3.50;1.52;;;19.80;50.10;;;;;;4954738;29;20047;-78
2022/06/11 11:22:04;;;;;;;4.90;1.55;;;19.90;49.00;;;;;;4954749;29;20055;-78
2022/06/11 11:24:35;;;;;;;8.05;1.80;;;20.20;50.10;;;;;;4954120;28;20059;-78
2022/06/11 11:27:25;;;;;;;6.95;1.77;;;20.40;49.90;;;;;;4954628;29;20053;-77
2022/06/11 11:29:56;;;;;;;4.25;1.00;;;20.80;49.60;;;;;;4952970;29;20051;-77
2022/06/11 11:32:35;;;;;;;6.80;2.10;;;21.10;46.90;;;;;;4954141;29;20166;-78
2022/06/11 11:35:26;;;;;;;3.65;1.17;;;20.80;47.40;;;;;;4954589;29;20054;-78
2022/06/11 11:38:13;;;;;;;5.78;1.75;;;20.80;47.40;;;;;;4950510;29;20039;-78
2022/06/11 11:41:01;;;;;;;9.70;2.08;;;20.80;49.00;;;;;;4951829;29;20039;-78
2022/06/11 11:43:38;;;;;;;7.40;1.55;;;20.90;49.20;;;;;;4953908;29;20050;-78
2022/06/11 11:46:16;;;;;;;5.00;1.70;;;20.90;48.10;;;;;;4953397;28;20067;-78
2022/06/11 11:48:56;;;;;;;8.15;1.83;;;20.90;47.80;;;;;;4954467;29;20051;-78
2022/06/11 11:51:40;;;;;;;7.60;1.98;;;20.90;48.50;;;;;;4954366;29;20047;-78
2022/06/11 11:54:24;;;;;;;10.57;2.10;;;20.90;49.00;;;;;;4952741;29;20047;-78
2022/06/11 11:57:05;;;;;;;4.55;1.48;;;20.80;48.60;;;;;;4953968;29;20055;-78
2022/06/11 11:59:58;;;;;;;7.82;2.13;;;21.00;48.80;;;;;;4954284;29;20536;-78
2022/06/11 12:02:45;;;;;;;8.63;1.88;;;21.10;48.10;;;;;;4945227;29;20066;-78
2022/06/11 12:05:25;;;;;;;4.30;1.25;;;21.20;47.80;;;;;;4953012;29;20059;-78
2022/06/11 12:07:55;;;;;;;7.00;1.42;;;21.30;47.20;;;;;;4952948;29;20048;-79
2022/06/11 12:10:39;;;;;;;4.53;1.27;;;21.50;46.40;;;;;;4954497;28;20059;-78
2022/06/11 12:13:23;;;;;;;5.45;1.40;;;21.70;45.40;;;;;;4953114;29;20051;-78
2022/06/11 12:16:00;;;;;;;8.52;2.15;;;21.80;44.90;;;;;;4954193;29;20047;-78
2022/06/11 12:18:43;;;;;;;4.07;1.30;;;21.70;46.20;;;;;;4953733;28;20432;-77
2022/06/11 12:21:13;;;;;;;;;;;21.80;46.00;;;;;;4961013;29;20047;-78
2022/06/11 12:23:48;;;;;;;5.97;1.50;;;21.80;45.40;;;;;;4957285;29;19922;-78
2022/06/11 12:26:23;;;;;;;2.97;1.02;;;21.80;45.60;;;;;;4959112;29;20054;-79
2022/06/11 12:29:31;;;;;;;11.98;1.83;;;21.50;44.90;;;;;;4958117;29;20043;-78
2022/06/11 12:32:09;;;;;;;5.05;1.73;;;21.10;46.60;;;;;;4957704;28;20058;-78
2022/06/11 12:34:36;;;;;;;6.70;1.70;;;21.20;47.10;;;;;;4957900;29;20369;-77
2022/06/11 12:37:39;;;;;;;4.57;1.48;;;21.40;47.00;;;;;;4957831;29;20063;-78
2022/06/11 12:40:16;;;;;;;6.45;1.63;;;21.60;45.40;;;;;;4957635;29;20059;-78
2022/06/11 12:43:06;;;;;;;1.83;0.80;;;21.80;45.60;;;;;;4957631;29;20051;-79
2022/06/11 12:46:13;;;;;;;7.72;1.20;;;22.10;42.50;;;;;;4956330;29;20047;-78
2022/06/11 12:49:12;;;;;;;9.20;2.45;;;22.10;43.20;;;;;;4957256;29;20481;-77
2022/06/11 12:52:08;;;;;;;8.63;2.22;;;22.30;43.20;;;;;;4957619;29;20058;-78
2022/06/11 12:54:50;;;;;;;6.25;2.08;;;21.80;43.60;;;;;;4957545;29;20460;-79
2022/06/11 12:57:37;;;;;;;3.10;1.30;;;21.30;44.00;;;;;;4956271;29;20051;-78
2022/06/11 13:00:36;;;;;;;3.50;1.13;;;21.30;44.50;;;;;;4957309;29;20058;-79
2022/06/11 13:03:27;;;;;;;3.55;1.00;;;21.70;43.30;;;;;;4957450;29;20051;-78
2022/06/11 13:06:17;;;;;;;3.47;1.23;;;22.40;42.10;;;;;;4957162;29;20062;-79
2022/06/11 13:09:12;;;;;;;4.57;1.45;;;22.80;40.90;;;;;;4957217;29;20043;-78
2022/06/11 13:11:42;;;;;;;9.70;1.02;;;23.10;41.00;;;;;;4957103;29;20425;-79
2022/06/11 13:14:38;;;;;;;3.22;0.82;;;23.30;40.70;;;;;;4955812;29;20505;-82
2022/06/11 13:17:28;;;;;;;4.07;1.00;;;23.10;39.70;;;;;;4956974;29;20051;-79
2022/06/11 13:20:14;;;;;;;3.42;0.80;;;22.40;40.50;;;;;;4957333;29;20047;-84
2022/06/11 13:22:56;;;;;;;3.17;1.00;;;21.80;41.70;;;;;;4956770;29;20047;-84
2022/06/11 13:25:24;;;;;;;4.10;1.10;;;21.40;42.10;;;;;;4959535;29;20054;-83
2022/06/11 13:28:04;;;;;;;5.70;1.20;;;21.10;43.10;;;;;;4958619;29;20047;-83
2022/06/11 13:30:52;;;;;;;3.28;1.10;;;20.80;44.00;;;;;;4956440;28;20540;-82
2022/06/11 13:33:30;;;;;;;4.22;0.85;;;20.50;44.20;;;;;;4955531;29;20051;-82